Latest Weather Observations for White Cliffs AWS

IDN60801

Issued at 2:32 pm EST Sunday 19 April 2015 (issued every 30 minutes, with the page automatically refreshed every 10 minutes)

About weather observations | Map of weather stations | Latest weather observations for NSW | Other Formats
Station Details ID: 046129 Name: WHITE CLIFFS AWS Lat: -30.85 Lon: 143.07 Height: 158.0 m
Data from the previous 72 hours. | See also: Recent months at White Cliffs AWS
Date/Time
EST
Temp
°C
App
Temp
°C
Dew
Point
Rel
Hum
%
Delta-T
°C
Wind Press
QNH
hPa
Press
MSL
hPa
Rain
since 9 am
mm
Dir
 
Spd
km/h
Gust
km/h
Spd
kts
Gust
kts
19/02:30pm 17.5 9.0 3.4 39 6.6 S 37 48 20 26 1025.9 1025.4 0.0
19/02:00pm 17.2 8.6 2.4 37 6.7 SSE 37 54 20 29 1025.9 1025.4 0.0
19/01:55pm 17.4 9.0 1.8 35 7.0 S 35 54 19 29 1025.8 1025.3 0.0
19/01:30pm 17.1 8.3 3.8 41 6.2 S 39 50 21 27 1026.1 1025.6 0.0
19/01:00pm 16.6 7.6 4.6 45 5.7 S 41 52 22 28 1026.2 1025.8 0.0
19/12:30pm 16.5 8.4 5.2 47 5.4 S 37 52 20 28 1026.5 1026.1 0.0
19/12:00pm 16.7 8.9 5.0 46 5.6 S 35 44 19 24 1026.6 1026.2 0.0
19/11:30am 15.9 8.0 4.3 46 5.5 S 35 44 19 24 1026.8 1026.4 0.0
19/11:00am 15.8 7.9 6.3 53 4.6 S 37 50 20 27 1026.7 1026.3 0.0
19/10:30am 15.3 7.7 7.6 60 3.9 S 37 46 20 25 1026.7 1026.3 0.0
19/10:00am 14.6 7.0 7.4 62 3.6 S 37 48 20 26 1026.5 1026.1 0.0
19/09:30am 14.2 7.6 8.6 69 2.8 S 33 41 18 22 1026.4 1026.0 0.0
19/09:00am 13.6 7.1 9.1 74 2.3 S 33 43 18 23 1026.2 1025.8 6.2
19/08:30am 13.6 6.9 9.8 78 2.0 S 35 48 19 26 1025.6 1025.1 6.2
19/08:00am 13.3 6.6 9.7 79 1.8 S 35 44 19 24 1024.8 1024.3 6.2
19/07:30am 13.3 7.8 10.7 84 1.4 S 30 41 16 22 1024.1 1023.6 6.2
19/07:00am 13.1 7.2 10.6 85 1.3 S 32 43 17 23 1023.6 1023.1 6.2
19/06:30am 13.3 7.2 10.5 83 1.5 S 33 50 18 27 1022.8 1022.4 6.2
19/06:25am 13.3 7.4 10.5 83 1.5 S 32 50 17 27 1022.8 1022.4 6.2
19/06:00am 13.6 7.8 11.5 87 1.1 SSW 33 43 18 23 1022.3 1021.9 6.2
19/05:46am 14.2 9.7 12.6 90 0.9 SSW 28 46 15 25 1021.9 1021.5 6.2
19/05:30am 14.2 10.4 12.4 89 1.0 SSW 24 33 13 18 1021.7 1021.3 6.2
19/05:00am 13.2 10.4 11.4 89 1.0 SW 17 19 9 10 1021.1 1020.7 6.2
19/04:30am 12.4 11.1 11.1 92 0.7 SW 9 11 5 6 1020.8 1020.4 6.2
19/04:00am 12.4 11.4 11.1 92 0.7 SW 7 7 4 4 1020.5 1020.0 6.0
19/03:30am 12.5 11.2 11.2 92 0.7 SSW 9 11 5 6 1020.2 1019.7 6.0
19/03:00am 12.6 10.7 11.7 94 0.5 SSW 13 15 7 8 1020.1 1019.6 6.0
19/02:30am 12.3 10.7 11.4 94 0.5 SW 11 11 6 6 1020.7 1020.3 6.0
19/02:00am 12.4 11.5 11.5 94 0.5 W 7 9 4 5 1020.9 1020.5 6.0
19/01:30am 12.7 13.2 11.6 93 0.6 CALM 0 0 0 0 1020.9 1020.5 6.0
19/01:00am 12.8 11.6 11.5 92 0.7 WSW 9 11 5 6 1020.6 1020.1 6.0
19/12:30am 13.2 11.7 11.9 92 0.7 SW 11 11 6 6 1020.6 1020.1 6.0
19/12:00am 13.5 12.4 12.1 91 0.8 SW 9 11 5 6 1020.8 1020.4 6.0
 
Date/Time
EST
Temp
°C
App
Temp
°C
Dew
Point
Rel
Hum
%
Delta-T
°C
Wind Press
QNH
hPa
Press
MSL
hPa
Rain
since 9 am
mm
Dir
 
Spd
km/h
Gust
km/h
Spd
kts
Gust
kts
18/11:30pm 13.9 12.8 12.1 89 1.0 SW 9 9 5 5 1020.8 1020.4 6.0
18/11:00pm 14.7 13.0 12.4 86 1.3 SW 13 13 7 7 1021.0 1020.6 6.0
18/10:30pm 15.4 13.3 12.3 82 1.7 SW 15 19 8 10 1021.0 1020.6 6.0
18/10:00pm 16.2 13.8 12.6 79 2.0 SW 17 22 9 12 1020.8 1020.4 6.0
18/09:30pm 16.3 14.4 13.0 81 1.8 SW 15 17 8 9 1020.3 1019.8 6.0
18/09:00pm 15.9 14.6 13.6 86 1.3 SSW 13 17 7 9 1019.8 1019.3 6.0
18/08:30pm 15.7 15.1 13.4 86 1.3 SSW 9 13 5 7 1019.7 1019.2 6.0
18/08:00pm 15.7 15.1 13.4 86 1.3 S 9 17 5 9 1019.2 1018.7 6.0
18/07:30pm 15.8 14.9 13.6 87 1.2 SSW 11 13 6 7 1018.8 1018.3 6.0
18/07:00pm 16.1 14.1 13.9 87 1.3 SSW 17 20 9 11 1018.2 1017.7 6.0
18/06:30pm 16.4 14.5 14.1 86 1.3 SSW 17 24 9 13 1017.8 1017.3 6.0
18/06:00pm 16.8 13.9 13.9 83 1.7 SSW 22 28 12 15 1017.4 1016.9 6.0
18/05:30pm 17.2 13.2 14.1 82 1.8 SSW 28 35 15 19 1017.1 1016.6 6.0
18/05:00pm 18.0 14.0 15.1 83 1.7 SSW 30 41 16 22 1016.9 1016.4 6.0
18/04:30pm 19.0 15.0 15.1 78 2.3 SSW 30 35 16 19 1016.5 1016.0 6.0
18/04:00pm 20.1 15.7 15.1 73 3.0 SSW 32 41 17 22 1015.9 1015.5 6.0
18/03:30pm 20.7 17.4 16.1 75 2.8 SSW 28 33 15 18 1015.9 1015.5 6.0
18/03:00pm 20.3 17.6 16.7 80 2.2 SW 26 32 14 17 1015.8 1015.4 6.0
18/02:30pm 20.2 18.7 17.8 86 1.5 SW 22 30 12 16 1015.7 1015.3 6.0
18/02:00pm 19.0 18.5 17.8 93 0.7 SW 17 20 9 11 1015.8 1015.4 6.0
18/01:30pm 18.9 16.5 17.4 91 0.9 WSW 26 39 14 21 1016.0 1015.6 5.2
18/01:00pm 18.9 16.1 17.4 91 0.9 WNW 28 39 15 21 1016.0 1015.6 4.2
18/12:30pm 21.4 19.9 17.6 79 2.4 NW 22 28 12 15 1016.2 1015.8 0.4
18/12:00pm 21.1 19.4 17.3 79 2.3 WNW 22 28 12 15 1016.7 1016.2 0.4
18/11:30am 19.9 18.7 17.5 86 1.5 NW 20 26 11 14 1016.6 1016.1 0.4
18/11:00am 19.7 17.7 17.5 87 1.4 NNW 24 28 13 15 1017.1 1016.6 0.2
18/10:30am 19.5 18.1 18.0 91 0.9 NNW 22 26 12 14 1017.1 1016.6 0.2
18/10:00am 19.1 18.6 17.8 92 0.8 NNW 17 20 9 11 1016.6 1016.1 0.2
18/09:42am 19.2 18.3 18.2 94 0.6 NNE 20 30 11 16 1017.3 1016.8 0.2
18/09:30am 18.9 17.9 17.9 94 0.6 NNE 20 26 11 14 1015.0 1014.5 0.2
18/09:00am 18.5 17.4 17.2 92 0.8 N 19 24 10 13 1016.9 1016.4 17.2
18/08:30am 18.6 18.7 17.4 93 0.7 N 13 17 7 9 1016.8 1016.3 17.2
18/08:00am 18.7 18.6 17.9 95 0.5 NW 15 20 8 11 1016.9 1016.4 16.8
18/07:30am 18.9 19.7 18.1 95 0.5 NNW 11 13 6 7 1016.6 1016.1 11.8
18/07:00am 18.8 19.1 18.0 95 0.5 NNW 13 17 7 9 1016.1 1015.7 10.6
18/06:30am 18.9 19.2 17.9 94 0.6 NW 13 17 7 9 1015.9 1015.5 9.4
18/06:00am 18.9 19.5 17.7 93 0.7 NW 11 13 6 7 1015.5 1015.1 7.4
18/05:30am 19.0 20.4 17.7 92 0.8 NW 7 13 4 7 1015.1 1014.6 6.2
18/05:00am 19.0 20.0 17.8 93 0.7 W 9 11 5 6 1015.0 1014.5 4.8
18/04:30am 19.0 20.4 17.8 93 0.7 W 7 9 4 5 1015.0 1014.5 4.0
18/04:00am 19.0 19.3 17.8 93 0.7 WSW 13 17 7 9 1014.9 1014.4 3.6
18/03:30am 19.1 19.7 17.8 92 0.8 WSW 11 15 6 8 1015.2 1014.8 2.6
18/03:00am 19.0 19.6 17.7 92 0.8 WSW 11 15 6 8 1015.2 1014.8 2.0
18/02:30am 19.2 19.4 17.7 91 0.9 WSW 13 15 7 8 1015.4 1015.0 1.4
18/02:00am 19.3 19.6 17.8 91 0.9 SW 13 17 7 9 1015.7 1015.3 1.0
18/01:30am 19.6 19.4 17.6 88 1.2 SW 15 19 8 10 1016.0 1015.6 0.4
18/01:00am 20.1 19.4 17.3 84 1.7 WSW 17 20 9 11 1016.2 1015.8 0.4
18/12:30am 20.7 20.0 17.3 81 2.1 WSW 17 20 9 11 1016.1 1015.7 0.2
18/12:00am 20.8 21.1 18.0 84 1.7 WSW 13 17 7 9 1016.5 1016.0 0.2
 
Date/Time
EST
Temp
°C
App
Temp
°C
Dew
Point
Rel
Hum
%
Delta-T
°C
Wind Press
QNH
hPa
Press
MSL
hPa
Rain
since 9 am
mm
Dir
 
Spd
km/h
Gust
km/h
Spd
kts
Gust
kts
17/11:30pm 21.1 22.2 17.9 82 2.0 W 9 11 5 6 1016.6 1016.1 0.2
17/11:00pm 21.4 22.7 17.2 77 2.6 SW 6 9 3 5 1016.8 1016.3 0.2
17/10:30pm 21.9 23.4 16.6 72 3.2 ESE 4 7 2 4 1016.5 1016.0 0.2
17/10:00pm 22.6 22.7 15.4 64 4.3 ENE 9 11 5 6 1016.3 1015.9 0.0
17/09:30pm 22.9 22.2 15.5 63 4.5 ESE 13 17 7 9 1015.4 1015.0 0.0
17/09:00pm 23.4 23.8 15.2 60 4.9 SE 7 9 4 5 1015.6 1015.2 0.0
17/08:30pm 23.7 23.2 14.9 57 5.3 S 11 13 6 7 1015.4 1015.0 0.0
17/08:00pm 23.9 22.9 14.6 56 5.5 S 13 17 7 9 1015.3 1014.9 0.0
17/07:30pm 24.1 21.9 14.8 56 5.6 SSW 20 26 11 14 1014.8 1014.3 0.0
17/07:00pm 25.7 23.0 13.5 46 7.2 SSW 20 26 11 14 1014.1 1013.6 0.0
17/06:30pm 26.7 23.2 10.8 37 9.0 SSW 20 28 11 15 1013.9 1013.4 0.0
17/06:00pm 27.5 23.0 10.2 34 9.8 SW 24 32 13 17 1013.5 1013.0 0.0
17/05:30pm 28.4 24.1 10.6 33 10.2 SW 24 32 13 17 1013.2 1012.7 0.0
17/05:00pm 29.4 25.1 9.5 29 11.2 W 22 28 12 15 1013.5 1013.0 0.0
17/04:30pm 30.0 25.1 10.0 29 11.4 W 26 32 14 17 1013.7 1013.2 0.0
17/04:00pm 31.3 25.4 8.9 25 12.6 W 30 39 16 21 1013.1 1012.6 0.0
17/03:30pm 32.1 26.3 9.6 25 12.8 WNW 30 41 16 22 1013.3 1012.8 0.0
17/03:00pm 33.0 27.9 9.1 23 13.6 NNW 26 35 14 19 1013.2 1012.7 0.0
17/02:30pm 32.8 27.6 8.9 23 13.5 NNW 26 35 14 19 1013.5 1013.0 0.0
17/02:00pm 33.2 28.5 9.3 23 13.6 NW 24 33 13 18 1013.8 1013.3 0.0
17/01:30pm 32.7 27.1 10.1 25 13.0 NNW 30 41 16 22 1014.3 1013.8 0.0
17/01:00pm 31.0 26.2 10.4 28 11.8 N 26 35 14 19 1014.8 1014.3 0.0
17/12:30pm 30.5 26.4 11.5 31 11.1 N 24 33 13 18 1015.6 1015.2 0.0
17/12:00pm 29.6 25.4 11.2 32 10.6 N 24 30 13 16 1016.3 1015.9 0.0
17/11:30am 29.1 24.9 11.2 33 10.3 NNE 24 33 13 18 1016.8 1016.3 0.0
17/11:00am 27.5 24.4 12.3 39 8.9 ENE 20 32 11 17 1017.2 1016.7 0.0
17/10:30am 25.2 21.1 12.8 46 7.2 E 26 33 14 18 1017.7 1017.2 0.0
17/10:00am 23.0 18.5 12.6 52 6.0 E 28 37 15 20 1018.4 1017.9 0.0
17/09:30am 21.8 17.1 13.2 58 5.0 E 30 35 16 19 1018.8 1018.3 0.0
17/09:00am 21.3 17.5 13.5 61 4.5 E 26 33 14 18 1019.2 1018.7 0.0
17/08:30am 20.3 17.2 13.5 65 3.9 ESE 22 30 12 16 1019.4 1018.9 0.0
17/08:00am 19.6 16.5 13.3 67 3.6 ESE 22 30 12 16 1019.3 1018.8 0.0
17/07:30am 19.3 15.7 13.0 67 3.6 SE 24 30 13 16 1019.0 1018.5 0.0
17/07:00am 19.3 16.1 13.0 67 3.6 SE 22 28 12 15 1018.9 1018.4 0.0
17/06:30am 19.2 15.9 12.9 67 3.6 SE 22 30 12 16 1019.0 1018.5 0.0
17/06:00am 19.0 15.4 13.0 68 3.4 SE 24 32 13 17 1018.9 1018.4 0.0
17/05:30am 18.9 15.7 13.1 69 3.3 ESE 22 32 12 17 1018.7 1018.2 0.0
17/05:00am 18.9 15.3 12.9 68 3.4 ESE 24 32 13 17 1018.5 1018.0 0.0
17/04:30am 19.2 15.9 12.9 67 3.6 SE 22 28 12 15 1018.4 1017.9 0.0
17/04:00am 18.5 14.5 13.1 71 3.1 SSE 26 33 14 18 1018.6 1018.1 0.0
17/03:30am 18.4 14.5 13.3 72 2.9 S 26 33 14 18 1018.9 1018.4 0.0
17/03:00am 18.4 15.2 13.0 71 3.1 SSE 22 30 12 16 1019.5 1019.0 0.0
17/02:30am 18.6 15.7 12.8 69 3.3 SSE 20 26 11 14 1019.7 1019.2 0.0
17/02:00am 19.0 15.2 12.5 66 3.6 S 24 30 13 16 1019.9 1019.4 0.0
17/01:30am 19.4 15.7 12.7 65 3.8 SSE 24 30 13 16 1020.2 1019.7 0.0
17/01:00am 19.7 16.7 12.7 64 4.0 S 20 26 11 14 1020.8 1020.4 0.0
17/12:30am 20.0 17.0 12.7 63 4.1 S 20 24 11 13 1020.9 1020.5 0.0
17/12:00am 20.4 18.1 12.9 62 4.3 SSE 17 20 9 11 1020.9 1020.5 0.0
 
Date/Time
EST
Temp
°C
App
Temp
°C
Dew
Point
Rel
Hum
%
Delta-T
°C
Wind Press
QNH
hPa
Press
MSL
hPa
Rain
since 9 am
mm
Dir
 
Spd
km/h
Gust
km/h
Spd
kts
Gust
kts
16/11:30pm 20.4 17.7 12.9 62 4.3 SSE 19 22 10 12 1021.0 1020.6 0.0
16/11:00pm 20.6 17.3 12.8 61 4.4 SSE 22 28 12 15 1021.4 1021.0 0.0
16/10:30pm 20.8 17.6 13.0 61 4.5 SSE 22 32 12 17 1021.7 1021.3 0.0
16/10:00pm 21.1 17.9 13.0 60 4.6 SSE 22 28 12 15 1022.0 1021.6 0.0
16/09:30pm 21.5 18.3 13.2 59 4.8 S 22 30 12 16 1022.1 1021.7 0.0
16/09:00pm 21.8 18.8 12.6 56 5.2 SSE 20 26 11 14 1021.9 1021.5 0.0
16/08:30pm 22.2 19.2 12.5 54 5.5 SSE 20 26 11 14 1021.6 1021.2 0.0
16/08:00pm 22.6 19.6 12.5 53 5.8 SSE 20 28 11 15 1021.4 1021.0 0.0
16/07:30pm 22.9 19.5 12.5 52 6.0 SSE 22 30 12 16 1021.4 1021.0 0.0
16/07:00pm 23.3 19.9 12.6 51 6.1 SSE 22 30 12 16 1021.1 1020.7 0.0
16/06:30pm 23.8 20.4 12.4 48 6.6 SSE 22 28 12 15 1020.8 1020.4 0.0
16/06:00pm 24.2 19.9 12.2 47 6.9 S 26 32 14 17 1020.6 1020.1 0.0
16/05:30pm 24.8 20.1 12.1 45 7.3 SSE 28 32 15 17 1020.4 1019.9 0.0
16/05:00pm 25.4 21.6 12.3 44 7.6 SSE 24 30 13 16 1020.6 1020.1 0.0
16/04:30pm 25.6 20.9 12.1 43 7.8 SSE 28 33 15 18 1020.7 1020.3 0.0
16/04:00pm 27.2 23.3 12.0 38 8.8 SSE 24 35 13 19 1020.6 1020.1 0.0
16/03:30pm 27.0 22.2 11.5 38 8.9 S 28 35 15 19 1020.5 1020.0 0.0
16/03:00pm 26.7 21.2 12.0 40 8.5 S 32 37 17 20 1020.5 1020.0 0.0

Other Formats:

Comma delimited format used in spreadsheet applications
http://www.bom.gov.au/fwo/IDN60801/IDN60801.95699.axf

JavaScript Object Notation format (JSON) in row-major order
http://www.bom.gov.au/fwo/IDN60801/IDN60801.95699.json